createdAt,value
2018-09-14T00:05:58.000Z,54.733
2018-09-14T00:15:58.000Z,54.73
2018-09-14T00:25:58.000Z,54.704
2018-09-14T00:35:58.000Z,54.732
2018-09-14T00:45:58.000Z,54.717
2018-09-14T00:55:58.000Z,54.712
2018-09-14T01:05:58.000Z,54.73
2018-09-14T01:15:58.000Z,54.737
2018-09-14T01:25:58.000Z,54.68
2018-09-14T01:35:58.000Z,54.719
2018-09-14T01:45:58.000Z,54.727
2018-09-14T01:55:58.000Z,54.669
2018-09-14T02:05:58.000Z,54.623
2018-09-14T02:15:58.000Z,54.672
2018-09-14T02:25:58.000Z,54.656
2018-09-14T02:35:58.000Z,54.665
2018-09-14T02:45:58.000Z,54.67
2018-09-14T02:55:58.000Z,54.689
2018-09-14T03:05:58.000Z,54.705
2018-09-14T03:15:58.000Z,54.659
2018-09-14T03:25:58.000Z,54.624
2018-09-14T03:35:58.000Z,54.61
2018-09-14T03:45:58.000Z,54.607
2018-09-14T03:55:58.000Z,54.614
2018-09-14T04:05:58.000Z,54.654
2018-09-14T04:15:58.000Z,54.619
2018-09-14T04:25:58.000Z,54.604
2018-09-14T04:35:58.000Z,54.622
2018-09-14T04:45:58.000Z,54.618
2018-09-14T04:55:58.000Z,54.646
2018-09-14T05:05:58.000Z,54.631
2018-09-14T05:15:58.000Z,54.607
2018-09-14T05:25:58.000Z,54.593
2018-09-14T05:35:58.000Z,54.632
2018-09-14T05:45:58.000Z,54.512
2018-09-14T05:55:58.000Z,54.343
2018-09-14T06:05:59.000Z,54.222
2018-09-14T06:15:58.000Z,54.146
2018-09-14T06:25:58.000Z,54.101
2018-09-14T06:35:59.000Z,53.955
2018-09-14T06:45:59.000Z,53.987
2018-09-14T06:55:59.000Z,53.871
2018-09-14T07:05:59.000Z,53.965
2018-09-14T07:15:59.000Z,54.054
2018-09-14T07:25:59.000Z,54.039
2018-09-14T07:35:59.000Z,53.821
2018-09-14T07:45:59.000Z,54.033
2018-09-14T07:55:59.000Z,54.114
2018-09-14T08:05:59.000Z,54.17
2018-09-14T08:15:59.000Z,54.352
2018-09-14T08:25:59.000Z,54.149
2018-09-14T08:35:59.000Z,53.777
2018-09-14T08:45:59.000Z,53.749
2018-09-14T08:55:59.000Z,53.459
2018-09-14T09:05:59.000Z,52.96
2018-09-14T09:15:59.000Z,52.505
2018-09-14T09:26:02.000Z,51.784
2018-09-14T09:35:59.000Z,51.436
2018-09-14T09:46:03.000Z,51.191
2018-09-14T09:55:59.000Z,51.213
2018-09-14T10:05:59.000Z,50.954
2018-09-14T10:15:59.000Z,50.78
2018-09-14T10:25:59.000Z,50.55
2018-09-14T10:35:59.000Z,50.931
2018-09-14T10:45:59.000Z,50.673
2018-09-14T10:55:59.000Z,50.685
2018-09-14T11:05:59.000Z,50.316
2018-09-14T11:15:59.000Z,50.48
2018-09-14T11:26:03.000Z,50.473
2018-09-14T11:35:59.000Z,49.843
2018-09-14T11:45:59.000Z,50.152
2018-09-14T11:55:59.000Z,50.245
2018-09-14T12:05:59.000Z,50.036
2018-09-14T12:15:59.000Z,49.718
2018-09-14T12:25:59.000Z,49.562
2018-09-14T12:35:59.000Z,49.374
2018-09-14T12:45:59.000Z,49.326
2018-09-14T12:55:59.000Z,49.402
2018-09-14T13:05:59.000Z,49.104
2018-09-14T13:15:59.000Z,48.762
2018-09-14T13:25:59.000Z,49.021
2018-09-14T13:35:59.000Z,48.882
2018-09-14T13:45:59.000Z,48.831
2018-09-14T13:55:59.000Z,48.678
2018-09-14T14:05:59.000Z,48.845
2018-09-14T14:15:59.000Z,48.829
2018-09-14T14:26:00.000Z,48.705
2018-09-14T14:35:59.000Z,48.554
2018-09-14T14:45:59.000Z,48.613
2018-09-14T14:56:00.000Z,48.426
2018-09-14T15:06:00.000Z,48.412
2018-09-14T15:16:00.000Z,48.152
2018-09-14T15:26:00.000Z,48.278
2018-09-14T15:36:00.000Z,48.32
2018-09-14T15:46:01.000Z,47.947
2018-09-14T15:56:00.000Z,47.939
2018-09-14T16:06:00.000Z,47.997
2018-09-14T16:16:00.000Z,48.26
2018-09-14T16:26:00.000Z,48.448
2018-09-14T16:36:00.000Z,48.461
2018-09-14T16:46:00.000Z,48.559
2018-09-14T16:56:00.000Z,48.496
2018-09-14T17:06:00.000Z,48.374
2018-09-14T17:16:00.000Z,48.434
2018-09-14T17:26:00.000Z,48.547
2018-09-14T17:36:00.000Z,48.314
2018-09-14T17:46:00.000Z,48.442
2018-09-14T17:56:01.000Z,48.547
2018-09-14T18:06:00.000Z,48.75
2018-09-14T18:16:00.000Z,48.729
2018-09-14T18:26:00.000Z,48.767
2018-09-14T18:36:00.000Z,48.743
2018-09-14T18:46:02.000Z,48.783
2018-09-14T18:56:00.000Z,48.771
2018-09-14T19:06:02.000Z,48.821
2018-09-14T19:16:00.000Z,48.848
2018-09-14T19:26:00.000Z,48.976
2018-09-14T19:36:00.000Z,48.744
2018-09-14T19:46:00.000Z,48.348
2018-09-14T19:56:00.000Z,48.387
2018-09-14T20:06:00.000Z,48.375
2018-09-14T20:16:00.000Z,48.43
2018-09-14T20:26:00.000Z,48.289
2018-09-14T20:36:00.000Z,48.234
2018-09-14T20:46:00.000Z,48.071
2018-09-14T20:56:00.000Z,48.049
2018-09-14T21:06:00.000Z,47.94
2018-09-14T21:16:00.000Z,47.917
2018-09-14T21:26:00.000Z,47.951
2018-09-14T21:36:00.000Z,47.852
2018-09-14T21:46:00.000Z,47.916
2018-09-14T21:56:01.000Z,48.118
2018-09-14T22:06:00.000Z,48.189
2018-09-14T22:16:00.000Z,48.095
2018-09-14T22:26:00.000Z,48.049
2018-09-14T22:36:00.000Z,48.154
2018-09-14T22:46:01.000Z,48.326
2018-09-14T22:56:00.000Z,48.278
2018-09-14T23:06:00.000Z,48.361
2018-09-14T23:16:00.000Z,48.421
2018-09-14T23:26:01.000Z,48.416
2018-09-14T23:36:01.000Z,48.467
2018-09-14T23:46:01.000Z,48.573
2018-09-14T23:56:01.000Z,48.58
